Time;durP1;ratioP1;P1;durP2;ratioP2;P2;SDS_P1;SDS_P2;PMS_P1;PMS_P2;Temp;Humidity;BMP_temperature;BMP_pressure;BME280_temperature;BME280_humidity;BME280_pressure;Samples;Min_cycle;Max_cycle;Signal;HPM_P1;HPM_P2
2022/09/25 00:00:26;;;;;;;6.63;2.67;;;;;;;12.84;83.88;101475.59;5015619;28;20033;-88
2022/09/25 00:02:51;;;;;;;8.48;2.75;;;;;;;12.76;83.95;101467.53;5015743;28;20033;-87
2022/09/25 00:05:16;;;;;;;7.90;2.80;;;;;;;12.86;83.75;101480.03;4998301;28;20033;-87
2022/09/25 00:07:42;;;;;;;9.20;2.70;;;;;;;12.76;83.64;101465.81;5015769;28;20022;-87
2022/09/25 00:10:07;;;;;;;8.90;2.55;;;;;;;12.83;83.78;101485.31;5014825;28;20026;-87
2022/09/25 00:12:34;;;;;;;7.80;2.63;;;;;;;12.83;83.88;101484.41;5015188;28;20030;-87
2022/09/25 00:15:00;;;;;;;7.00;2.47;;;;;;;12.87;84.03;101495.09;5015346;28;20059;-87
2022/09/25 00:17:26;;;;;;;7.38;3.05;;;;;;;12.84;83.79;101484.44;4997681;28;20064;-88
2022/09/25 00:19:53;;;;;;;8.95;2.72;;;;;;;12.89;83.47;101495.09;4997472;28;20033;-87
2022/09/25 00:22:21;;;;;;;7.15;2.78;;;;;;;12.82;83.80;101491.50;4997603;28;20034;-87
2022/09/25 00:24:47;;;;;;;9.57;3.00;;;;;;;12.79;83.62;101502.94;5015144;28;20498;-87
2022/09/25 00:27:13;;;;;;;8.45;2.78;;;;;;;12.74;83.63;101499.34;4996916;28;20095;-87
2022/09/25 00:29:40;;;;;;;9.82;2.78;;;;;;;12.75;84.07;101493.16;4981300;28;20393;-87
2022/09/25 00:32:07;;;;;;;7.38;2.67;;;;;;;12.68;83.83;101496.63;4996998;28;20041;-87
2022/09/25 00:34:32;;;;;;;8.30;2.58;;;;;;;12.64;84.18;101496.56;4980692;28;20030;-87
2022/09/25 00:36:58;;;;;;;8.25;2.63;;;;;;;12.59;83.98;101491.22;4997422;28;20033;-87
2022/09/25 00:39:24;;;;;;;20.20;3.25;;;;;;;12.58;84.17;101485.88;4996967;28;20057;-87
2022/09/25 00:41:51;;;;;;;10.35;2.55;;;;;;;12.57;83.86;101500.00;4981069;28;20517;-86
2022/09/25 00:44:57;;;;;;;11.13;2.83;;;;;;;12.59;84.34;101495.59;5012807;28;20033;-86
2022/09/25 00:47:41;;;;;;;13.05;2.92;;;;;;;12.56;83.97;101484.97;5015157;28;20013;-87
2022/09/25 00:50:25;;;;;;;11.20;2.88;;;;;;;12.60;84.11;101490.34;4997960;28;20018;-87
2022/09/25 00:52:54;;;;;;;9.38;2.55;;;;;;;12.57;84.00;101490.28;5014830;28;20041;-87
2022/09/25 00:55:22;;;;;;;9.57;2.70;;;;;;;12.53;83.80;101489.34;5014693;28;20048;-87
2022/09/25 00:57:51;;;;;;;8.23;2.63;;;;;;;12.49;83.99;101502.56;4996778;28;20490;-87
2022/09/25 01:00:20;;;;;;;6.50;2.42;;;;;;;12.50;84.26;101496.38;5014347;28;20417;-87
2022/09/25 01:02:52;;;;;;;10.40;2.70;;;;;;;12.47;84.07;101499.00;4996591;28;20029;-87
2022/09/25 01:05:21;;;;;;;7.75;2.53;;;;;;;12.45;83.90;101493.66;4996980;28;20037;-87
2022/09/25 01:07:48;;;;;;;6.80;2.50;;;;;;;12.45;83.62;101498.06;4997236;28;20168;-87
2022/09/25 01:10:17;;;;;;;9.90;2.60;;;;;;;12.41;84.11;101502.44;4996813;28;20200;-87
2022/09/25 01:12:47;;;;;;;7.97;2.88;;;;;;;12.44;84.07;101504.25;5013119;28;20029;-87
2022/09/25 01:15:18;;;;;;;9.80;2.88;;;;;;;12.36;84.03;101500.59;4997063;28;20401;-87
2022/09/25 01:17:53;;;;;;;8.23;2.53;;;;;;;12.37;84.08;101500.63;4996655;28;20045;-87
2022/09/25 01:20:49;;;;;;;12.20;2.80;;;;;;;12.41;84.59;101502.44;4997208;28;20033;-87
2022/09/25 01:23:45;;;;;;;7.55;2.67;;;;;;;12.43;84.08;101505.13;5014580;28;20496;-88
2022/09/25 01:26:48;;;;;;;11.38;2.70;;;;;;;12.37;84.02;101503.28;4996178;28;20022;-87
2022/09/25 01:29:20;;;;;;;;;;;;;;;12.40;83.65;101510.38;4997024;28;20036;-87
2022/09/25 01:32:08;;;;;;;6.38;2.40;;;;;;;12.25;84.17;101509.31;4996721;28;19905;-87
2022/09/25 01:34:50;;;;;;;8.80;2.55;;;;;;;12.23;84.15;101505.72;4996809;28;20040;-88
2022/09/25 01:37:28;;;;;;;7.03;2.70;;;;;;;12.29;84.00;101507.59;4996716;28;20025;-87
2022/09/25 01:40:12;;;;;;;9.15;2.90;;;;;;;12.22;83.77;101508.38;5013107;28;20033;-88
2022/09/25 01:42:56;;;;;;;11.48;2.88;;;;;;;12.21;83.95;101512.78;4996797;28;20061;-87
2022/09/25 01:45:35;;;;;;;8.30;2.58;;;;;;;12.19;84.11;101514.50;4996287;28;20037;-87
2022/09/25 01:48:04;;;;;;;9.82;2.80;;;;;;;12.16;83.68;101513.56;5014258;28;20030;-87
2022/09/25 01:50:43;;;;;;;7.82;2.60;;;;;;;12.14;83.87;101510.00;5013942;28;20028;-86
2022/09/25 01:53:15;;;;;;;10.02;2.70;;;;;;;12.10;83.53;101509.06;4996539;28;20022;-86
2022/09/25 01:55:46;;;;;;;7.97;2.90;;;;;;;12.06;83.31;101522.25;5014764;28;20026;-87
2022/09/25 01:58:21;;;;;;;9.02;2.78;;;;;;;11.99;84.24;101519.50;5000395;28;20368;-86
2022/09/25 02:01:00;;;;;;;11.52;2.50;;;;;;;11.95;83.85;101519.44;5000246;28;20104;-87
2022/09/25 02:03:34;;;;;;;9.18;2.78;;;;;;;11.93;83.66;101519.41;5017698;28;20068;-87
2022/09/25 02:06:03;;;;;;;8.00;2.60;;;;;;;11.90;84.07;101521.09;5000170;28;20120;-88
2022/09/25 02:08:34;;;;;;;11.07;3.10;;;;;;;11.87;83.55;101511.38;4999745;28;20125;-87
2022/09/25 02:11:02;;;;;;;7.20;2.53;;;;;;;11.79;83.91;101508.56;5018034;28;20028;-87
2022/09/25 02:14:06;;;;;;;11.85;3.00;;;;;;;11.77;84.58;101512.91;5016205;28;20026;-88
2022/09/25 02:16:42;;;;;;;7.97;2.72;;;;;;;11.86;83.79;101513.97;5017174;28;20378;-87
2022/09/25 02:22:22;;;;;;;7.30;2.70;;;;;;;11.87;83.62;101518.44;5002912;28;20087;-87
2022/09/25 02:24:59;;;;;;;10.60;2.80;;;;;;;11.81;83.21;101512.97;5016891;28;20442;-87
2022/09/25 02:27:26;;;;;;;7.13;2.55;;;;;;;11.76;83.47;101511.16;4999359;28;20482;-87
2022/09/25 02:29:52;;;;;;;7.55;2.92;;;;;;;11.78;83.96;101504.13;4999664;28;20033;-87
2022/09/25 02:32:24;;;;;;;9.98;2.78;;;;;;;11.76;83.48;101513.78;4999412;28;20029;-87
2022/09/25 02:34:51;;;;;;;9.02;3.53;;;;;;;11.70;83.43;101511.06;4999786;28;20026;-87
2022/09/25 02:37:17;;;;;;;10.65;3.00;;;;;;;11.65;83.54;101514.47;4999435;28;20112;-87
2022/09/25 02:39:46;;;;;;;10.52;2.92;;;;;;;11.60;83.56;101508.22;4999984;28;20080;-86
2022/09/25 02:42:38;;;;;;;7.10;2.67;;;;;;;11.63;83.80;101513.56;5015888;28;20032;-87
2022/09/25 02:45:27;;;;;;;6.32;2.80;;;;;;;11.61;83.25;101515.31;5016676;28;20373;-87
2022/09/25 02:48:23;;;;;;;9.65;2.83;;;;;;;11.62;83.93;101509.16;4998937;28;20481;-86
2022/09/25 02:51:16;;;;;;;8.77;2.72;;;;;;;11.63;83.71;101517.09;5017268;28;20342;-87
2022/09/25 02:53:47;;;;;;;8.60;2.83;;;;;;;11.60;83.17;101513.50;4999120;28;20045;-86
2022/09/25 02:56:15;;;;;;;8.75;2.75;;;;;;;11.57;83.42;101506.44;4999838;28;20345;-87
2022/09/25 02:58:45;;;;;;;9.93;3.33;;;;;;;11.53;83.28;101488.72;4999053;28;20108;-87
2022/09/25 03:01:14;;;;;;;10.40;2.97;;;;;;;11.56;82.71;101483.44;4999341;28;20454;-87
2022/09/25 03:03:43;;;;;;;9.82;3.10;;;;;;;11.54;83.01;101479.91;4998799;28;20091;-87
2022/09/25 03:06:09;;;;;;;6.22;2.78;;;;;;;11.58;82.94;101488.78;4998717;28;20048;-86
2022/09/25 03:08:40;;;;;;;10.48;2.95;;;;;;;11.52;82.66;101486.94;4997653;28;20026;-86
2022/09/25 03:11:18;;;;;;;6.35;2.83;;;;;;;11.56;82.83;101493.13;4999252;28;20037;-86
2022/09/25 03:13:44;;;;;;;6.53;2.70;;;;;;;11.52;82.90;101498.41;4998903;28;20084;-87
2022/09/25 03:16:46;;;;;;;9.15;3.22;;;;;;;11.48;83.13;101501.88;5016293;28;20113;-86
2022/09/25 03:19:13;;;;;;;5.63;2.90;;;;;;;11.39;83.13;101493.75;4999265;28;20026;-88
2022/09/25 03:21:38;;;;;;;8.20;2.60;;;;;;;11.29;82.41;101486.50;4998427;28;20033;-86
2022/09/25 03:24:04;;;;;;;7.80;3.10;;;;;;;11.28;82.96;101498.84;4998438;28;20560;-86
2022/09/25 03:26:29;;;;;;;9.38;2.85;;;;;;;11.23;83.51;101497.88;5015362;28;20060;-86
2022/09/25 03:28:55;;;;;;;8.65;3.00;;;;;;;11.19;83.16;101497.78;5016405;28;20461;-87
2022/09/25 03:31:21;;;;;;;10.38;2.97;;;;;;;11.17;82.79;101497.75;4997897;28;20462;-86
2022/09/25 03:33:47;;;;;;;10.30;2.90;;;;;;;11.21;83.39;101511.94;4999089;28;20125;-86
2022/09/25 03:36:19;;;;;;;10.48;3.08;;;;;;;11.15;83.16;101496.84;5015462;28;20057;-87
2022/09/25 03:38:47;;;;;;;9.48;2.63;;;;;;;11.16;83.57;101506.56;5015946;28;20434;-87
2022/09/25 03:41:14;;;;;;;8.88;2.88;;;;;;;11.12;84.02;101506.47;5015639;28;20053;-87
2022/09/25 03:43:42;;;;;;;9.30;2.90;;;;;;;11.06;84.50;101495.78;5015610;28;20111;-86
2022/09/25 03:46:12;;;;;;;6.82;2.90;;;;;;;11.01;84.13;101493.94;5015866;28;20136;-87
2022/09/25 03:48:39;;;;;;;11.25;3.10;;;;;;;11.03;84.23;101497.50;5015252;28;20033;-87
2022/09/25 03:51:05;;;;;;;9.50;2.97;;;;;;;11.08;84.31;101500.22;5015163;28;20044;-87
2022/09/25 03:53:32;;;;;;;10.05;3.30;;;;;;;11.06;84.32;101504.59;4997818;28;20029;-87
2022/09/25 03:56:01;;;;;;;8.75;2.83;;;;;;;11.12;84.39;101506.47;4997827;28;20121;-86
2022/09/25 03:58:26;;;;;;;11.30;3.15;;;;;;;11.06;83.44;101494.03;4997742;28;20034;-86
2022/09/25 04:00:55;;;;;;;9.93;4.32;;;;;;;11.04;83.69;101506.31;4981454;28;20458;-86
2022/09/25 04:03:23;;;;;;;8.13;3.13;;;;;;;11.02;83.94;101503.66;5015782;28;20028;-87
2022/09/25 04:05:49;;;;;;;14.13;3.00;;;;;;;10.99;83.79;101506.22;5015425;28;20450;-87
2022/09/25 04:08:15;;;;;;;9.55;3.25;;;;;;;11.00;83.50;101507.13;4997599;28;20124;-86
2022/09/25 04:10:40;;;;;;;7.53;2.88;;;;;;;10.94;83.50;101499.97;5014861;28;20117;-86
2022/09/25 04:13:07;;;;;;;8.38;3.13;;;;;;;10.90;83.68;101506.06;4997249;28;20409;-87
2022/09/25 04:15:33;;;;;;;11.00;3.20;;;;;;;10.87;83.87;101499.81;4997747;28;20083;-86
2022/09/25 04:18:01;;;;;;;9.20;3.30;;;;;;;10.91;83.47;101497.25;4980809;28;20462;-87
2022/09/25 04:20:27;;;;;;;8.73;3.00;;;;;;;10.81;83.46;101492.66;4982285;28;20034;-87
2022/09/25 04:22:52;;;;;;;8.70;3.10;;;;;;;10.76;83.74;101487.28;4997536;28;20484;-86
2022/09/25 04:25:20;;;;;;;11.68;3.20;;;;;;;10.81;84.16;101489.13;4981118;28;20089;-88
2022/09/25 04:27:48;;;;;;;8.38;3.15;;;;;;;10.78;84.42;101495.22;4982348;28;20038;-86
2022/09/25 04:30:14;;;;;;;9.82;3.28;;;;;;;10.78;84.47;101488.19;5014961;28;20030;-86
2022/09/25 04:35:23;;;;;;;8.50;3.40;;;;;;;10.82;83.70;101488.25;4986596;28;20045;-87
2022/09/25 04:37:48;;;;;;;9.07;3.47;;;;;;;10.81;84.16;101502.34;4980987;28;20377;-88
2022/09/25 04:40:14;;;;;;;6.75;3.35;;;;;;;10.81;84.07;101505.88;5014828;28;20033;-86
2022/09/25 04:42:41;;;;;;;6.40;3.30;;;;;;;10.74;83.50;101498.66;4997645;28;20397;-86
2022/09/25 04:45:07;;;;;;;7.45;3.40;;;;;;;10.80;83.74;101492.63;5014880;28;20458;-86
2022/09/25 04:47:33;;;;;;;7.43;3.60;;;;;;;10.84;83.86;101495.38;5014392;28;20081;-86
2022/09/25 04:49:58;;;;;;;8.52;3.85;;;;;;;10.78;83.87;101495.22;4981157;28;20030;-86
2022/09/25 04:52:23;;;;;;;7.95;3.70;;;;;;;10.72;84.02;101496.00;5014623;28;20390;-87
2022/09/25 04:54:49;;;;;;;8.40;3.80;;;;;;;10.61;84.18;101492.22;4980630;28;20034;-86
2022/09/25 04:57:16;;;;;;;7.47;3.80;;;;;;;10.62;84.13;101498.41;4996949;28;20080;-86
2022/09/25 04:59:42;;;;;;;8.65;3.70;;;;;;;10.56;84.07;101498.28;4996814;28;20029;-86
2022/09/25 05:02:07;;;;;;;8.35;3.83;;;;;;;10.50;84.01;101485.84;5014286;28;20371;-86
2022/09/25 05:04:33;;;;;;;8.63;3.78;;;;;;;10.50;84.09;101496.41;5014017;28;20034;-87
2022/09/25 05:06:58;;;;;;;9.90;3.72;;;;;;;10.47;84.55;101484.00;4980341;28;20442;-87
2022/09/25 05:09:24;;;;;;;7.57;3.83;;;;;;;10.50;84.29;101485.84;4996968;28;20088;-87
2022/09/25 05:11:49;;;;;;;9.43;4.05;;;;;;;10.49;84.11;101490.25;4996788;28;20033;-87
2022/09/25 05:14:15;;;;;;;7.03;3.90;;;;;;;10.51;84.36;101488.50;4996632;28;20370;-87
2022/09/25 05:16:41;;;;;;;8.13;4.32;;;;;;;10.49;84.00;101484.03;5014416;28;20136;-87
2022/09/25 05:19:06;;;;;;;8.90;3.85;;;;;;;10.52;83.98;101485.00;5014054;28;20026;-87
2022/09/25 05:21:31;;;;;;;7.88;3.97;;;;;;;10.44;84.16;101473.38;4996547;28;20042;-87
2022/09/25 05:23:58;;;;;;;7.28;4.00;;;;;;;10.40;83.86;101476.81;4996547;28;20033;-87
2022/09/25 05:26:23;;;;;;;14.27;4.50;;;;;;;10.35;84.49;101480.22;5013977;28;20038;-88
2022/09/25 05:28:49;;;;;;;7.35;3.85;;;;;;;10.27;84.52;101480.03;4996549;28;20030;-86
2022/09/25 05:31:16;;;;;;;10.13;4.45;;;;;;;10.30;84.15;101482.75;5016154;28;20355;-86
2022/09/25 05:33:42;;;;;;;9.10;4.32;;;;;;;10.26;84.45;101484.44;4985144;28;20351;-87
2022/09/25 05:36:09;;;;;;;8.73;4.15;;;;;;;10.25;84.38;101484.41;5018000;28;20500;-87
2022/09/25 05:38:36;;;;;;;8.60;3.72;;;;;;;10.20;83.97;101473.72;5017573;28;20030;-87
2022/09/25 05:41:04;;;;;;;6.50;4.05;;;;;;;10.20;84.01;101480.75;5000195;28;20022;-87
2022/09/25 05:43:30;;;;;;;10.00;4.15;;;;;;;10.15;84.16;101482.38;5018192;28;20032;-87
2022/09/25 05:45:56;;;;;;;7.65;4.20;;;;;;;10.11;84.47;101475.28;5000257;28;20034;-87
2022/09/25 05:48:22;;;;;;;11.98;4.45;;;;;;;10.17;84.29;101478.03;5017706;28;20025;-86
2022/09/25 05:50:51;;;;;;;9.48;3.92;;;;;;;10.28;84.55;101482.75;5018216;28;20022;-87
2022/09/25 05:53:19;;;;;;;13.57;4.85;;;;;;;10.41;85.04;101489.19;5000656;28;20021;-86
2022/09/25 05:55:51;;;;;;;10.02;4.47;;;;;;;10.49;85.35;101495.53;5000124;28;20053;-87
2022/09/25 05:58:16;;;;;;;9.23;4.53;;;;;;;10.57;84.29;101486.84;5017238;28;20030;-87
2022/09/25 06:00:42;;;;;;;8.38;4.45;;;;;;;10.64;84.26;101497.59;5017477;28;20037;-87
2022/09/25 06:03:07;;;;;;;8.48;4.63;;;;;;;10.63;83.64;101487.00;5017668;28;20109;-87
2022/09/25 06:05:33;;;;;;;10.80;4.22;;;;;;;10.76;83.32;101500.50;5017391;28;20021;-87
2022/09/25 06:07:58;;;;;;;8.93;4.47;;;;;;;10.77;83.46;101486.41;5016423;28;20390;-87
2022/09/25 06:10:25;;;;;;;6.70;4.38;;;;;;;10.85;83.40;101480.38;4999701;28;20044;-87
2022/09/25 06:12:56;;;;;;;12.15;4.18;;;;;;;10.99;84.06;101484.19;5017433;28;20025;-87
2022/09/25 06:15:22;;;;;;;9.40;3.97;;;;;;;11.15;83.55;101482.72;5000803;28;20033;-87
2022/09/25 06:17:48;;;;;;;10.23;4.57;;;;;;;11.26;82.68;101494.38;5017125;28;20037;-87
2022/09/25 06:20:14;;;;;;;10.35;4.70;;;;;;;11.38;83.30;101481.38;5016737;28;20026;-86
2022/09/25 06:22:43;;;;;;;10.65;4.53;;;;;;;11.54;82.21;101488.72;4999538;28;20033;-86
2022/09/25 06:25:09;;;;;;;7.18;4.40;;;;;;;11.74;82.84;101501.41;4999658;28;20080;-86
2022/09/25 06:27:35;;;;;;;8.20;4.68;;;;;;;11.78;81.98;101501.50;5017132;28;20056;-86
2022/09/25 06:30:01;;;;;;;10.55;5.30;;;;;;;11.95;82.19;101490.31;5016561;28;20458;-86
2022/09/25 06:32:28;;;;;;;8.98;5.03;;;;;;;12.07;82.12;101500.19;4983050;28;20041;-86
2022/09/25 06:34:53;;;;;;;8.32;5.20;;;;;;;12.21;82.74;101498.66;4999044;28;20030;-86
2022/09/25 06:37:18;;;;;;;11.95;5.18;;;;;;;12.22;82.52;101503.97;4999497;28;20030;-86
2022/09/25 06:39:44;;;;;;;10.65;5.15;;;;;;;12.34;82.06;101497.06;4999831;28;20034;-86
2022/09/25 06:42:09;;;;;;;8.07;4.85;;;;;;;12.48;82.14;101506.97;4982840;28;20030;-86
2022/09/25 06:44:35;;;;;;;9.32;4.70;;;;;;;12.53;81.64;101499.06;4998678;28;20038;-86
2022/09/25 06:47:00;;;;;;;8.77;4.53;;;;;;;12.63;81.35;101492.13;5016858;28;20021;-86
2022/09/25 06:49:26;;;;;;;9.20;4.80;;;;;;;12.85;81.38;101504.81;4998905;28;20058;-86
2022/09/25 06:51:52;;;;;;;6.85;4.60;;;;;;;13.09;81.87;101500.63;5015220;28;20108;-86
2022/09/25 06:54:20;;;;;;;12.13;4.97;;;;;;;13.20;81.31;101502.53;4998940;28;20041;-86
2022/09/25 06:56:48;;;;;;;12.05;4.75;;;;;;;13.37;80.61;101505.41;4999028;28;20462;-86
2022/09/25 06:59:14;;;;;;;13.07;5.07;;;;;;;13.43;79.06;101502.78;5016103;28;20029;-86
2022/09/25 07:01:39;;;;;;;6.97;4.10;;;;;;;13.54;78.76;101513.53;5016061;28;20068;-86
2022/09/25 07:04:05;;;;;;;6.93;4.20;;;;;;;13.62;79.09;101498.56;4998350;28;20072;-86
2022/09/25 07:06:33;;;;;;;9.85;4.38;;;;;;;13.84;79.32;101496.97;4998745;28;20076;-86
2022/09/25 07:09:00;;;;;;;6.90;4.03;;;;;;;14.07;78.09;101517.50;5015882;28;20080;-86
2022/09/25 07:11:27;;;;;;;8.95;4.32;;;;;;;14.27;77.76;101510.53;5015423;28;20128;-86
2022/09/25 07:13:55;;;;;;;10.00;4.60;;;;;;;14.43;76.87;101493.81;4982397;28;20509;-86
2022/09/25 07:16:25;;;;;;;6.95;4.47;;;;;;;14.69;76.38;101501.06;4998418;28;20080;-86
2022/09/25 07:19:02;;;;;;;7.78;4.35;;;;;;;14.76;76.23;101501.06;5016299;28;20025;-86
2022/09/25 07:21:29;;;;;;;7.95;3.97;;;;;;;14.99;75.93;101511.81;4983742;28;20413;-86
2022/09/25 07:23:57;;;;;;;7.22;4.15;;;;;;;15.19;74.56;101525.16;4998840;28;20034;-86
2022/09/25 07:26:28;;;;;;;9.43;4.22;;;;;;;15.23;74.84;101508.31;4997903;28;20042;-87
2022/09/25 07:29:05;;;;;;;10.50;4.18;;;;;;;15.47;74.67;101510.13;5016141;28;20033;-86
2022/09/25 07:31:32;;;;;;;5.88;3.50;;;;;;;15.75;72.61;101511.06;4998113;28;20033;-85
2022/09/25 07:34:01;;;;;;;7.03;4.03;;;;;;;16.00;71.76;101519.94;5015417;28;20167;-86
2022/09/25 07:36:27;;;;;;;7.97;3.70;;;;;;;16.15;72.10;101528.84;4998317;28;20030;-86
2022/09/25 07:38:53;;;;;;;7.38;3.60;;;;;;;16.40;71.66;101527.91;5015599;28;20473;-86
2022/09/25 07:41:21;;;;;;;8.38;3.53;;;;;;;16.50;69.81;101508.31;4982230;28;20034;-86
2022/09/25 07:43:51;;;;;;;8.15;3.30;;;;;;;16.72;69.57;101516.22;5015604;28;20060;-86
2022/09/25 07:46:16;;;;;;;5.40;3.10;;;;;;;16.88;69.16;101520.66;5016270;28;20080;-86
2022/09/25 07:48:42;;;;;;;5.15;3.30;;;;;;;17.12;67.69;101527.63;4998939;28;20113;-86
2022/09/25 07:51:10;;;;;;;8.00;3.08;;;;;;;17.20;66.79;101500.88;5016747;28;20033;-87
2022/09/25 07:53:37;;;;;;;7.00;3.00;;;;;;;17.37;65.76;101506.13;5014547;28;20462;-86
2022/09/25 07:56:03;;;;;;;5.93;3.00;;;;;;;17.49;64.62;101501.59;4998254;28;20041;-86
2022/09/25 07:58:28;;;;;;;6.72;2.85;;;;;;;17.98;65.41;101513.69;5015359;28;20021;-86
2022/09/25 08:00:59;;;;;;;6.53;2.85;;;;;;;18.21;64.33;101514.38;4997718;28;20045;-85
2022/09/25 08:03:24;;;;;;;5.97;3.00;;;;;;;18.56;63.04;101515.78;5014668;28;20030;-85
2022/09/25 08:06:16;;;;;;;5.50;2.53;;;;;;;18.91;65.50;101504.66;5015163;28;20083;-85
2022/09/25 08:08:43;;;;;;;5.63;2.83;;;;;;;19.13;63.05;101491.84;4995376;28;20048;-86
2022/09/25 08:11:10;;;;;;;4.63;2.63;;;;;;;19.25;61.64;101498.84;5014804;28;20798;-85
2022/09/25 08:13:37;;;;;;;7.47;2.40;;;;;;;19.34;61.11;101496.00;5015060;28;20022;-85
2022/09/25 08:16:12;;;;;;;8.48;2.67;;;;;;;19.64;60.99;101494.69;5014957;28;20461;-85
2022/09/25 08:18:41;;;;;;;7.63;2.50;;;;;;;19.95;61.32;101503.09;5015310;28;20072;-85
2022/09/25 08:21:08;;;;;;;6.53;2.55;;;;;;;20.17;58.70;101495.56;4997348;28;20033;-86
2022/09/25 08:23:33;;;;;;;6.78;2.58;;;;;;;20.29;58.42;101498.91;5014959;28;20034;-85
2022/09/25 08:26:00;;;;;;;4.68;2.20;;;;;;;20.43;57.50;101502.22;4997345;28;20048;-85
2022/09/25 08:28:27;;;;;;;6.60;2.40;;;;;;;20.79;58.20;101506.00;5014791;28;20076;-86
2022/09/25 08:30:53;;;;;;;7.25;2.30;;;;;;;20.91;55.82;101496.78;5014717;28;20054;-86
2022/09/25 08:33:18;;;;;;;8.68;2.42;;;;;;;21.01;54.84;101506.41;4997087;28;20060;-86
2022/09/25 08:36:00;;;;;;;6.75;2.33;;;;;;;20.84;56.55;101504.09;5014454;28;20125;-86
2022/09/25 08:38:27;;;;;;;9.45;2.30;;;;;;;20.83;56.49;101496.06;4997237;28;20381;-85
2022/09/25 08:41:17;;;;;;;6.28;2.40;;;;;;;20.83;58.08;101501.44;5014645;28;20466;-86
2022/09/25 08:44:05;;;;;;;8.48;2.28;;;;;;;20.59;54.89;101502.81;5014807;28;20018;-87
2022/09/25 08:49:25;;;;;;;6.38;2.10;;;;;;;21.01;55.65;101501.91;5015004;28;20397;-86
2022/09/25 08:51:56;;;;;;;9.07;2.33;;;;;;;21.42;53.25;101502.81;5014355;28;20382;-86
2022/09/25 08:54:25;;;;;;;8.07;2.30;;;;;;;21.48;51.96;101499.97;4997296;28;20035;-82
2022/09/25 08:56:54;;;;;;;8.55;2.30;;;;;;;21.68;52.78;101501.31;5014421;28;20081;-86
2022/09/25 08:59:31;;;;;;;8.05;2.10;;;;;;;21.85;51.86;101495.50;4996530;28;20018;-86
2022/09/25 09:02:02;;;;;;;7.10;2.05;;;;;;;21.84;50.88;101494.63;5013946;28;20028;-84
2022/09/25 09:04:37;;;;;;;9.48;2.10;;;;;;;22.05;51.47;101489.59;4996403;28;20030;-83
2022/09/25 09:07:07;;;;;;;5.78;2.10;;;;;;;22.27;49.36;101498.00;5013551;28;20418;-84
2022/09/25 09:09:43;;;;;;;9.93;2.38;;;;;;;22.59;50.35;101498.00;5014187;28;20026;-85
2022/09/25 09:12:17;;;;;;;6.90;2.28;;;;;;;22.67;50.61;101495.97;5014865;28;20029;-87
2022/09/25 09:14:47;;;;;;;8.52;2.10;;;;;;;22.77;48.23;101490.28;4997058;28;20076;-87
2022/09/25 09:17:25;;;;;;;8.98;2.13;;;;;;;22.82;49.55;101480.25;5014403;28;20080;-87
2022/09/25 09:20:03;;;;;;;4.78;1.98;;;;;;;22.93;48.37;101489.81;5014049;28;20029;-87
2022/09/25 09:22:38;;;;;;;6.05;2.15;;;;;;;22.67;48.45;101485.19;5015164;28;20105;-87
2022/09/25 09:25:32;;;;;;;5.40;1.90;;;;;;;22.79;48.81;101489.34;5013986;28;20022;-82
2022/09/25 09:28:15;;;;;;;5.63;2.00;;;;;;;22.95;48.37;101487.97;4993035;28;20133;-85
2022/09/25 09:31:06;;;;;;;6.18;2.35;;;;;;;22.97;48.45;101486.09;4994545;28;20117;-87
2022/09/25 09:33:53;;;;;;;6.78;1.80;;;;;;;23.16;46.96;101480.13;4996868;28;20022;-87
2022/09/25 09:36:40;;;;;;;6.57;1.90;;;;;;;23.45;48.57;101482.78;4996768;28;20031;-88
2022/09/25 09:39:34;;;;;;;5.82;1.90;;;;;;;23.46;46.76;101480.97;4999890;28;20062;-89
2022/09/25 09:42:21;;;;;;;6.13;1.90;;;;;;;23.51;45.84;101484.44;4994649;28;20081;-91
2022/09/25 09:45:29;;;;;;;5.70;2.00;;;;;;;23.43;44.81;101479.28;4996722;28;20018;-89
2022/09/25 09:48:14;;;;;;;5.75;1.85;;;;;;;22.97;44.75;101474.44;4961304;28;20125;-85
2022/09/25 09:50:50;;;;;;;6.95;1.90;;;;;;;22.80;45.33;101474.91;4993737;28;20069;-86
2022/09/25 09:53:31;;;;;;;7.15;1.98;;;;;;;22.90;44.93;101473.75;4994195;28;20026;-89
2022/09/25 09:56:04;;;;;;;4.43;1.77;;;;;;;22.92;44.55;101463.81;4994380;28;20113;-96
2022/09/25 09:58:54;;;;;;;6.90;1.80;;;;;;;23.21;43.31;101462.91;4994132;28;20104;-89
2022/09/25 10:01:23;;;;;;;4.85;1.70;;;;;;;23.00;42.72;101463.59;4986654;28;20038;-85
2022/09/25 10:04:00;;;;;;;6.18;1.80;;;;;;;22.80;43.32;101466.84;4994144;28;20026;-85
2022/09/25 10:06:29;;;;;;;5.57;1.60;;;;;;;22.68;43.13;101465.38;4994171;28;20475;-89
2022/09/25 10:08:55;;;;;;;6.03;1.80;;;;;;;22.66;44.14;101463.69;4992777;28;20029;-88
2022/09/25 10:11:21;;;;;;;6.30;2.00;;;;;;;22.75;42.58;101463.41;4993793;28;20022;-88
2022/09/25 10:13:47;;;;;;;6.30;2.13;;;;;;;23.23;43.76;101463.72;4993165;28;20365;-92
2022/09/25 10:16:22;;;;;;;5.43;1.67;;;;;;;23.66;44.12;101462.34;4993208;28;20030;-88
2022/09/25 10:19:04;;;;;;;6.40;1.90;;;;;;;23.69;43.18;101453.28;4997601;28;20462;-90
2022/09/25 10:21:37;;;;;;;5.07;1.92;;;;;;;23.78;41.75;101455.66;4998573;28;20030;-93
2022/09/25 10:24:02;;;;;;;6.22;1.83;;;;;;;23.78;42.47;101458.34;4997952;28;20022;-93
2022/09/25 10:26:35;;;;;;;7.53;1.90;;;;;;;23.78;40.07;101455.66;5002084;28;20057;-92
2022/09/25 10:29:20;;;;;;;5.63;1.80;;;;;;;24.52;42.46;101453.91;5018221;28;20061;-93
2022/09/25 10:31:46;;;;;;;6.53;1.73;;;;;;;24.56;39.09;101446.56;5017122;28;20036;-93
2022/09/25 10:34:11;;;;;;;5.93;1.67;;;;;;;24.66;39.69;101448.84;5017461;28;20030;-93
2022/09/25 10:36:44;;;;;;;5.50;1.88;;;;;;;24.54;42.01;101443.94;5017223;28;20018;-93
2022/09/25 10:39:29;;;;;;;7.90;2.13;;;;;;;24.72;40.33;101450.47;5017325;28;20053;-92
2022/09/25 10:41:57;;;;;;;4.45;1.90;;;;;;;24.01;37.88;101451.25;5017265;28;20026;-93
2022/09/25 10:44:33;;;;;;;3.83;1.65;;;;;;;23.40;39.78;101454.22;5000503;28;20040;-92
2022/09/25 10:50:13;;;;;;;4.93;1.80;;;;;;;23.49;39.53;101454.78;5013981;28;20406;-93
2022/09/25 10:52:49;;;;;;;4.28;1.52;;;;;;;23.98;40.20;101446.84;5016376;28;20026;-92
2022/09/25 10:55:21;;;;;;;4.45;1.65;;;;;;;24.48;39.04;101441.44;4999276;28;20446;-92
2022/09/25 10:57:47;;;;;;;3.13;1.52;;;;;;;24.51;38.08;101441.34;5016908;28;20021;-91
2022/09/25 11:00:21;;;;;;;6.75;1.80;;;;;;;23.91;39.12;101440.78;5016387;28;20034;-92
2022/09/25 11:02:50;;;;;;;5.47;2.05;;;;;;;23.50;39.05;101444.88;5017219;28;20036;-91
2022/09/25 11:05:24;;;;;;;7.20;1.80;;;;;;;23.20;39.95;101447.63;5016618;28;20128;-92
2022/09/25 11:07:54;;;;;;;6.45;1.65;;;;;;;22.99;40.70;101437.53;4999346;28;20362;-91
2022/09/25 11:10:33;;;;;;;4.80;1.90;;;;;;;23.33;41.76;101441.84;5015940;28;20462;-92
2022/09/25 11:13:05;;;;;;;6.75;1.60;;;;;;;23.64;39.54;101437.22;5016814;28;20022;-91
2022/09/25 11:15:31;;;;;;;5.25;1.40;;;;;;;23.98;38.08;101438.75;5016414;28;20018;-92
2022/09/25 11:17:57;;;;;;;8.07;1.67;;;;;;;24.19;38.44;101439.78;5016634;28;20068;-92
2022/09/25 11:20:30;;;;;;;3.78;1.55;;;;;;;24.34;37.80;101439.25;5016476;28;20037;-95
2022/09/25 11:22:58;;;;;;;3.53;1.38;;;;;;;24.40;36.81;101439.03;4999740;28;20354;-91
2022/09/25 11:25:33;;;;;;;3.25;1.60;;;;;;;24.61;37.71;101439.16;5016705;28;20029;-92
2022/09/25 11:28:22;;;;;;;4.47;1.40;;;;;;;24.74;37.32;101440.47;5016247;28;20049;-87
2022/09/25 11:31:04;;;;;;;4.32;1.60;;;;;;;25.36;35.40;101430.81;5017209;28;20231;-90
2022/09/25 11:34:06;;;;;;;3.05;1.30;;;;;;;25.72;36.23;101433.78;5023856;28;20097;-90
2022/09/25 11:36:40;;;;;;;3.72;1.67;;;;;;;25.74;34.10;101421.06;5018094;28;20453;-90
2022/09/25 11:42:13;;;;;;;4.32;1.70;;;;;;;25.36;34.83;101417.28;5016045;28;20036;-90
2022/09/25 11:44:46;;;;;;;3.35;1.52;;;;;;;24.83;33.64;101415.75;5015943;28;20394;-89
2022/09/25 11:47:19;;;;;;;4.82;1.42;;;;;;;24.68;35.52;101419.97;5015518;28;20109;-90
2022/09/25 11:49:52;;;;;;;6.28;1.55;;;;;;;24.73;35.37;101417.94;5015285;28;20025;-87
2022/09/25 11:52:52;;;;;;;5.28;1.40;;;;;;;25.32;35.57;101408.41;5015451;28;20041;-90
2022/09/25 11:56:09;;;;;;;4.95;1.40;;;;;;;25.41;34.57;101404.44;5015633;28;20025;-91
2022/09/25 11:58:50;;;;;;;5.35;2.15;;;;;;;25.29;33.24;101402.25;4954989;29;20032;-92